Skip to main content

NOAA/GLERL Met Station at Michigan City, IN

Previous 3 Hours (2 minute increments)
See also Previous 5 Days (top of hour)
Jump down to Data
Switch to [English][Metric]
Zoom: Click and drag, Pan: shift-click and drag, Unzoom: double-click, Unzoom All






See also 1-day windrose plot


NOAA/GLERL Met Station at Michigan City, IN

Previous 3 Hours (2 minute increments)
See also Previous 5 Days (top of hour only)
Jump up to Graphs
Switch to [English][Metric]
                  Wind  Wind  Wind   Air   Dew   Rel     Sta   PAR
                   Spd   Gst   Dir  Temp    Pt   Hum    Pres uE/m2/
YYYY-MM-DD   CDT   kts   kts   deg     F     F     %   in Hg   sec
2022-05-19 23:22  16.3  20.8   178  72.5   0.0   0.0    0.00     0
2022-05-19 23:20  12.8  15.0   174  72.5   0.0   0.0    0.00     0
2022-05-19 23:18  14.0  17.9   176  72.5   0.0   0.0    0.00     0
2022-05-19 23:16  14.4  18.7   172  72.7   0.0   0.0    0.00     0
2022-05-19 23:14  14.4  18.3   173  72.9   0.0   0.0    0.00     0
2022-05-19 23:12  14.6  18.5   178  72.9   0.0   0.0    0.00     0
2022-05-19 23:10  13.2  18.1   175  72.7   0.0   0.0    0.00     0
2022-05-19 23:08  12.8  16.5   177  73.0   0.0   0.0    0.00     0
2022-05-19 23:06  14.4  16.7   176  73.0   0.0   0.0    0.00     0
2022-05-19 23:04  15.0  20.8   177  73.0   0.0   0.0    0.00     0
2022-05-19 23:02  14.4  18.7   177  73.2   0.0   0.0    0.00     0
2022-05-19 23:00  14.0  17.9   175  73.2   0.0   0.0    0.00     0
2022-05-19 22:58  12.2  15.6   173  73.2   0.0   0.0    0.00     0
2022-05-19 22:56  10.3  12.4   180  73.2   0.0   0.0    0.00     0
2022-05-19 22:54  12.8  15.4   177  73.2   0.0   0.0    0.00     0
2022-05-19 22:52  10.7  13.4   179  73.2   0.0   0.0    0.00     0
2022-05-19 22:50   9.7  12.8   181  73.2   0.0   0.0    0.00     0
2022-05-19 22:48   8.9  10.5   171  73.2   0.0   0.0    0.00     0
2022-05-19 22:46  11.9  16.3   169  73.4   0.0   0.0    0.00     0
2022-05-19 22:44  10.1  12.6   170  73.4   0.0   0.0    0.00     0
2022-05-19 22:42  11.7  15.9   169  73.4   0.0   0.0    0.00     0
2022-05-19 22:40  11.5  13.4   166  73.4   0.0   0.0    0.00     0
2022-05-19 22:38  12.2  16.9   177  73.6   0.0   0.0    0.00     0
2022-05-19 22:36  13.6  16.5   173  73.6   0.0   0.0    0.00     0
2022-05-19 22:34  10.9  14.8   176  73.6   0.0   0.0    0.00     0
2022-05-19 22:32  12.8  16.5   172  73.8   0.0   0.0    0.00     0
2022-05-19 22:30  12.8  16.9   172  73.8   0.0   0.0    0.00     0
2022-05-19 22:28  13.4  15.9   173  73.8   0.0   0.0    0.00     0
2022-05-19 22:26  11.7  14.8   168  73.8   0.0   0.0    0.00     0
2022-05-19 22:24  10.9  14.8   170  73.6   0.0   0.0    0.00     0
2022-05-19 22:22  10.3  14.0   167  73.8   0.0   0.0    0.00     0
2022-05-19 22:20  11.5  15.0   168  73.9   0.0   0.0    0.00     0
2022-05-19 22:18  10.3  15.7   172  73.8   0.0   0.0    0.00     0
2022-05-19 22:16   9.3  10.7   169  73.9   0.0   0.0    0.00     0
2022-05-19 22:14  11.9  15.6   174  73.9   0.0   0.0    0.00     0
2022-05-19 22:12  12.6  15.9   177  74.1   0.0   0.0    0.00     0
2022-05-19 22:10  12.6  17.9   177  74.5   0.0   0.0    0.00     0
2022-05-19 22:08  14.2  17.1   178  74.5   0.0   0.0    0.00     0
2022-05-19 22:06  15.6  19.6   179  74.5   0.0   0.0    0.00     0
2022-05-19 22:04  13.2  16.9   176  74.7   0.0   0.0    0.00     0
2022-05-19 22:02  14.6  18.3   178  74.5   0.0   0.0    0.00     0
2022-05-19 22:00  12.2  15.7   178  74.5   0.0   0.0    0.00     0
2022-05-19 21:58  12.2  14.4   176  74.7   0.0   0.0    0.00     0
2022-05-19 21:56  11.1  13.8   174  74.7   0.0   0.0    0.00     0
2022-05-19 21:54  11.9  17.3   169  74.8   0.0   0.0    0.00     0
2022-05-19 21:52  12.6  17.3   170  74.8   0.0   0.0    0.00     0
2022-05-19 21:50  11.7  16.9   177  74.7   0.0   0.0    0.00     0
2022-05-19 21:48  12.8  17.3   173  74.7   0.0   0.0    0.00     0
2022-05-19 21:46  12.1  16.3   176  75.0   0.0   0.0    0.00     0
2022-05-19 21:44  13.2  17.7   174  75.2   0.0   0.0    0.00     0
2022-05-19 21:42  12.1  15.2   174  75.2   0.0   0.0    0.00     0
2022-05-19 21:40  11.9  14.2   171  75.2   0.0   0.0    0.00     0
2022-05-19 21:38  13.2  16.1   171  75.2   0.0   0.0    0.00     0
2022-05-19 21:36  12.1  16.3   171  75.2   0.0   0.0    0.00     0
2022-05-19 21:34  11.7  13.8   172  75.4   0.0   0.0    0.00     0
2022-05-19 21:32  12.2  14.6   175  75.4   0.0   0.0    0.00     0
2022-05-19 21:30  12.6  15.4   172  75.6   0.0   0.0    0.00     0
2022-05-19 21:28  13.0  18.3   174  75.4   0.0   0.0    0.00     0
2022-05-19 21:26  10.1  16.3   173  75.6   0.0   0.0    0.00     0
2022-05-19 21:24  11.9  15.9   175  75.7   0.0   0.0    0.00     0
2022-05-19 21:22   9.7  14.6   163  75.6   0.0   0.0    0.00     0
2022-05-19 21:20   8.7  11.7   170  75.9   0.0   0.0    0.00     0
2022-05-19 21:18  10.9  15.9   173  76.1   0.0   0.0    0.00     0
2022-05-19 21:16  11.7  14.6   174  76.3   0.0   0.0    0.00     0
2022-05-19 21:14  11.7  16.1   173  76.3   0.0   0.0    0.00     0
2022-05-19 21:12   8.6  11.3   173  76.1   0.0   0.0    0.00     0
2022-05-19 21:10   9.1  11.7   166  76.1   0.0   0.0    0.00     0
2022-05-19 21:08   9.5  12.1   166  76.1   0.0   0.0    0.00     0
2022-05-19 21:06  10.1  13.6   174  76.3   0.0   0.0    0.00     0
2022-05-19 21:04  10.5  14.0   171  76.3   0.0   0.0    0.00     0
2022-05-19 21:02   9.7  12.4   170  76.3   0.0   0.0    0.00     0
2022-05-19 21:00   9.5  12.6   171  76.5   0.0   0.0    0.00     0
2022-05-19 20:58  10.1  12.2   164  76.6   0.0   0.0    0.00     0
2022-05-19 20:56  10.7  13.4   178  76.6   0.0   0.0    0.00     0
2022-05-19 20:54   9.5  12.6   174  76.6   0.0   0.0    0.00     0
2022-05-19 20:52   9.5  11.7   168  76.8   0.0   0.0    0.00     0
2022-05-19 20:50   9.9  13.0   169  76.8   0.0   0.0    0.00     0
2022-05-19 20:48   8.7  10.7   172  77.2   0.0   0.0    0.00     0
2022-05-19 20:46  10.5  13.8   171  77.2   0.0   0.0    0.00     0
2022-05-19 20:44  10.5  14.0   175  77.2   0.0   0.0    0.00     0
2022-05-19 20:42  10.5  14.4   173  77.2   0.0   0.0    0.00     0
2022-05-19 20:40  10.5  15.6   178  77.4   0.0   0.0    0.00     0
2022-05-19 20:38  11.3  15.4   169  77.4   0.0   0.0    0.00     0
2022-05-19 20:36  10.3  13.8   173  77.5   0.0   0.0    0.00     0
2022-05-19 20:34  10.9  14.0   170  77.5   0.0   0.0    0.00     0
2022-05-19 20:32   9.9  13.0   167  77.7   0.0   0.0    0.00     0
2022-05-19 20:30  11.3  15.4   172  77.5   0.0   0.0    0.00     0
2022-05-19 20:28  10.1  13.4   172  77.9   0.0   0.0    0.00     0
2022-05-19 20:26  14.0  16.3   181  78.1   0.0   0.0    0.00     0
2022-05-19 20:24  11.5  16.9   176  78.1   0.0   0.0    0.00     0
2022-05-19 20:22  11.3  15.4   180  78.1   0.0   0.0    0.00     0